Time;durP1;ratioP1;P1;durP2;ratioP2;P2;SDS_P1;SDS_P2;PMS_P1;PMS_P2;Temp;Humidity;BMP_temperature;BMP_pressure;BME280_temperature;BME280_humidity;BME280_pressure;Samples;Min_cycle;Max_cycle;Signal;HPM_P1;HPM_P2
2022/12/20 00:00:15;;;;;;;2.63;2.20;;;10.80;45.00;;;;;;5115989;28;20207;-51
2022/12/20 00:02:42;;;;;;;3.77;2.43;;;10.80;42.50;;;;;;5115947;28;20223;-53
2022/12/20 00:05:09;;;;;;;2.60;2.00;;;10.80;35.90;;;;;;5115895;27;20611;-54
2022/12/20 00:07:35;;;;;;;3.53;2.20;;;10.90;24.60;;;;;;5115717;27;20220;-57
2022/12/20 00:10:02;;;;;;;3.70;2.10;;;11.00;17.30;;;;;;5115983;27;20211;-51
2022/12/20 00:12:28;;;;;;;2.57;1.90;;;11.00;13.70;;;;;;5115440;28;20207;-54
2022/12/20 00:14:55;;;;;;;3.50;2.33;;;11.00;13.30;;;;;;5115602;28;20215;-53
2022/12/20 00:17:23;;;;;;;2.50;1.53;;;11.00;14.20;;;;;;5115089;27;20227;-53
2022/12/20 00:19:50;;;;;;;2.93;1.80;;;11.00;16.40;;;;;;5115632;28;20281;-54
2022/12/20 00:22:16;;;;;;;4.30;2.13;;;11.10;16.30;;;;;;5115305;28;20620;-51
2022/12/20 00:24:43;;;;;;;3.97;2.00;;;11.20;11.80;;;;;;5115511;28;20215;-52
2022/12/20 00:27:10;;;;;;;2.13;1.83;;;11.20;10.40;;;;;;5114769;27;20260;-52
2022/12/20 00:29:38;;;;;;;2.73;1.90;;;11.20;12.80;;;;;;5114753;28;20597;-49
2022/12/20 00:32:04;;;;;;;6.00;2.00;;;11.20;10.20;;;;;;5115162;28;20650;-54
2022/12/20 00:34:32;;;;;;;3.73;1.93;;;11.20;11.70;;;;;;5115305;28;20209;-50
2022/12/20 00:36:59;;;;;;;2.37;1.93;;;11.40;1.00;;;;;;5115333;28;20280;-55
2022/12/20 00:39:26;;;;;;;3.80;1.90;;;11.40;1.00;;;;;;5114915;28;20211;-51
2022/12/20 00:41:52;;;;;;;4.40;1.90;;;11.40;1.00;;;;;;5115618;28;20208;-51
2022/12/20 00:44:19;;;;;;;2.53;1.60;;;11.40;1.00;;;;;;5115049;28;20613;-51
2022/12/20 00:46:46;;;;;;;3.63;1.63;;;11.40;1.00;;;;;;5114263;28;20208;-51
2022/12/20 00:49:14;;;;;;;4.33;2.13;;;11.30;1.00;;;;;;5114763;28;20204;-55
2022/12/20 00:51:42;;;;;;;3.70;1.83;;;11.20;1.00;;;;;;5114792;28;20207;-56
2022/12/20 00:54:09;;;;;;;2.57;1.80;;;11.20;1.00;;;;;;5114500;28;20628;-51
2022/12/20 00:56:36;;;;;;;4.17;2.07;;;11.10;6.40;;;;;;5114460;28;20196;-51
2022/12/20 00:59:02;;;;;;;2.77;2.00;;;11.10;1.90;;;;;;5114635;28;20223;-55
2022/12/20 01:01:31;;;;;;;4.40;2.00;;;11.10;1.50;;;;;;5115120;28;20237;-54
2022/12/20 01:03:58;;;;;;;3.37;2.10;;;11.10;1.00;;;;;;5114759;28;20212;-56
2022/12/20 01:06:25;;;;;;;4.43;1.90;;;11.20;1.60;;;;;;5114315;28;20674;-53
2022/12/20 01:08:54;;;;;;;4.47;1.90;;;11.10;10.40;;;;;;5114487;28;20621;-56
2022/12/20 01:11:22;;;;;;;6.17;2.17;;;11.10;15.10;;;;;;5114085;28;20207;-58
2022/12/20 01:13:51;;;;;;;4.63;1.80;;;11.10;16.60;;;;;;5114242;28;20245;-53
2022/12/20 01:16:21;;;;;;;3.40;2.13;;;11.10;10.20;;;;;;5114273;28;20207;-50
2022/12/20 01:18:48;;;;;;;4.13;2.30;;;11.20;7.20;;;;;;5114310;28;20300;-50
2022/12/20 01:21:17;;;;;;;4.83;2.17;;;11.10;8.50;;;;;;5114226;28;20747;-53
2022/12/20 01:23:44;;;;;;;3.83;2.07;;;11.20;5.70;;;;;;5114140;28;20208;-49
2022/12/20 01:26:14;;;;;;;3.20;2.10;;;11.20;1.70;;;;;;5114176;28;20245;-50
2022/12/20 01:28:42;;;;;;;4.03;1.90;;;11.20;5.30;;;;;;5114733;28;20212;-49
2022/12/20 01:31:10;;;;;;;2.77;2.17;;;11.20;8.20;;;;;;5113809;28;20207;-53
2022/12/20 01:33:37;;;;;;;3.10;2.00;;;11.10;13.20;;;;;;5113179;28;20204;-49
2022/12/20 01:36:06;;;;;;;2.93;2.13;;;11.20;13.50;;;;;;5113985;28;20261;-49
2022/12/20 01:38:34;;;;;;;3.60;2.00;;;11.20;15.60;;;;;;5114025;28;20227;-48
2022/12/20 01:41:01;;;;;;;5.43;2.50;;;11.10;17.10;;;;;;5114119;28;20234;-49
2022/12/20 01:43:47;;;;;;;3.03;2.07;;;11.10;17.30;;;;;;5113832;28;20626;-52
2022/12/20 01:46:14;;;;;;;2.53;2.10;;;11.20;20.90;;;;;;5113110;28;20256;-54
2022/12/20 01:48:42;;;;;;;3.83;2.17;;;11.10;24.10;;;;;;5113467;28;20614;-51
2022/12/20 01:51:09;;;;;;;4.63;2.20;;;11.10;28.20;;;;;;5113536;28;20247;-54
2022/12/20 01:53:36;;;;;;;3.03;2.10;;;11.10;29.80;;;;;;5113825;28;20203;-54
2022/12/20 01:56:06;;;;;;;2.43;2.10;;;11.10;29.10;;;;;;5113383;28;20251;-51
2022/12/20 01:58:36;;;;;;;2.73;1.77;;;11.20;29.00;;;;;;5112386;28;20234;-50
2022/12/20 02:01:03;;;;;;;3.03;2.03;;;11.20;32.10;;;;;;5113563;28;20208;-51
2022/12/20 02:03:32;;;;;;;4.50;2.13;;;11.10;34.40;;;;;;5113675;28;20553;-50
2022/12/20 02:06:14;;;;;;;3.00;2.00;;;11.10;40.70;;;;;;5113588;28;20216;-54
2022/12/20 02:08:41;;;;;;;3.03;2.10;;;11.10;43.60;;;;;;5113420;28;20284;-53
2022/12/20 02:11:21;;;;;;;2.37;1.73;;;11.10;51.80;;;;;;5113333;28;20605;-53
2022/12/20 02:13:56;;;;;;;2.87;2.20;;;11.10;57.50;;;;;;5113385;28;20624;-51
2022/12/20 02:16:27;;;;;;;3.50;2.03;;;11.10;61.00;;;;;;5113205;28;20199;-52
2022/12/20 02:18:59;;;;;;;4.00;2.40;;;11.10;69.20;;;;;;5113078;28;20701;-48
2022/12/20 02:21:33;;;;;;;3.63;2.60;;;11.00;72.20;;;;;;5113001;28;20204;-54
2022/12/20 02:24:47;;;;;;;5.10;2.60;;;11.00;78.60;;;;;;5113407;28;20875;-51
2022/12/20 02:27:45;;;;;;;3.47;2.20;;;11.00;90.10;;;;;;5104742;28;20226;-51
2022/12/20 02:30:17;;;;;;;4.77;2.00;;;11.00;91.40;;;;;;5113090;28;20627;-51
2022/12/20 02:32:57;;;;;;;2.67;2.27;;;10.90;93.10;;;;;;5113162;28;20199;-53
2022/12/20 02:35:26;;;;;;;3.50;2.23;;;10.90;95.60;;;;;;5112998;28;20218;-54
2022/12/20 02:37:55;;;;;;;3.63;2.50;;;10.90;97.90;;;;;;5112601;28;20307;-52
2022/12/20 02:40:26;;;;;;;2.90;2.53;;;10.80;99.90;;;;;;5113071;28;20207;-52
2022/12/20 02:42:57;;;;;;;5.03;2.20;;;10.80;99.90;;;;;;5113027;28;20207;-53
2022/12/20 02:45:27;;;;;;;6.23;2.73;;;10.80;99.90;;;;;;5112734;28;20208;-51
2022/12/20 02:47:58;;;;;;;4.13;2.53;;;10.80;99.20;;;;;;5112368;28;20760;-52
2022/12/20 02:50:28;;;;;;;4.03;2.50;;;10.80;98.20;;;;;;5112962;28;20195;-54
2022/12/20 02:52:56;;;;;;;3.33;2.37;;;10.80;97.60;;;;;;5112303;28;20204;-52
2022/12/20 02:55:31;;;;;;;5.30;2.23;;;10.80;97.70;;;;;;5112672;28;20191;-48
2022/12/20 02:58:02;;;;;;;2.50;2.10;;;10.80;95.70;;;;;;5112167;28;20758;-52
2022/12/20 03:00:36;;;;;;;4.37;2.40;;;10.80;91.30;;;;;;5112907;28;20184;-49
2022/12/20 03:03:23;;;;;;;2.67;2.27;;;10.80;90.60;;;;;;5112033;28;20264;-52
2022/12/20 03:05:52;;;;;;;4.97;2.60;;;10.80;88.00;;;;;;5112137;28;20251;-53
2022/12/20 03:08:19;;;;;;;4.20;2.30;;;10.80;91.50;;;;;;5112106;28;20729;-52
2022/12/20 03:10:46;;;;;;;3.83;2.70;;;10.80;93.70;;;;;;5112168;28;20215;-54
2022/12/20 03:13:13;;;;;;;4.37;2.60;;;10.80;92.60;;;;;;5112153;28;20199;-54
2022/12/20 03:15:41;;;;;;;4.53;2.70;;;10.80;91.30;;;;;;5112184;28;20287;-53
2022/12/20 03:18:08;;;;;;;4.13;2.73;;;10.80;94.20;;;;;;5112177;28;20323;-57
2022/12/20 03:20:34;;;;;;;3.20;2.47;;;10.70;97.30;;;;;;5112480;28;20203;-53
2022/12/20 03:23:01;;;;;;;3.70;2.87;;;10.70;99.90;;;;;;5112169;28;20208;-57
2022/12/20 03:25:28;;;;;;;5.50;3.20;;;10.70;99.90;;;;;;5112369;28;20204;-55
2022/12/20 03:27:55;;;;;;;6.13;3.00;;;10.60;99.90;;;;;;5111866;28;20220;-54
2022/12/20 03:30:21;;;;;;;3.87;2.93;;;10.40;99.90;;;;;;5112267;28;20204;-54
2022/12/20 03:32:49;;;;;;;6.90;2.57;;;10.30;99.90;;;;;;5112554;28;20249;-54
2022/12/20 03:35:16;;;;;;;3.30;2.73;;;10.30;99.90;;;;;;5112280;28;20634;-55
2022/12/20 03:37:43;;;;;;;4.47;2.83;;;10.10;99.90;;;;;;5111882;28;20219;-50
2022/12/20 03:40:11;;;;;;;3.53;2.67;;;10.10;99.90;;;;;;5112063;28;20584;-49
2022/12/20 03:42:38;;;;;;;4.47;2.73;;;10.10;99.90;;;;;;5112215;28;20229;-50
2022/12/20 03:45:06;;;;;;;4.40;3.10;;;10.10;99.90;;;;;;5112350;28;20287;-54
2022/12/20 03:47:32;;;;;;;4.40;2.63;;;10.10;99.90;;;;;;5111761;28;20717;-55
2022/12/20 03:50:00;;;;;;;4.90;2.97;;;10.10;99.90;;;;;;5112156;28;20205;-50
2022/12/20 03:52:27;;;;;;;6.80;3.17;;;10.00;99.90;;;;;;5112032;28;20253;-52
2022/12/20 03:54:54;;;;;;;5.23;3.23;;;10.00;99.90;;;;;;5112071;28;20210;-49
2022/12/20 03:57:20;;;;;;;5.40;2.90;;;9.90;99.90;;;;;;5111505;28;20238;-54
2022/12/20 03:59:47;;;;;;;4.47;2.90;;;9.90;99.90;;;;;;5112039;28;20283;-53
2022/12/20 04:02:14;;;;;;;3.77;3.00;;;9.80;99.90;;;;;;5111990;28;20626;-54
2022/12/20 04:04:40;;;;;;;4.97;2.80;;;9.80;99.90;;;;;;5112010;28;20210;-48
2022/12/20 04:07:09;;;;;;;6.77;3.87;;;9.80;99.90;;;;;;5111461;28;20276;-54
2022/12/20 04:09:35;;;;;;;4.03;3.30;;;9.80;99.90;;;;;;5111884;28;20211;-49
2022/12/20 04:12:02;;;;;;;5.93;3.00;;;9.80;99.90;;;;;;5111635;28;20202;-52
2022/12/20 04:14:29;;;;;;;5.30;2.90;;;9.80;99.90;;;;;;5111899;28;20221;-53
2022/12/20 04:16:55;;;;;;;4.40;2.83;;;9.80;99.90;;;;;;5111630;28;20200;-53
2022/12/20 04:19:22;;;;;;;3.80;3.10;;;9.80;99.90;;;;;;5111770;28;20227;-53
2022/12/20 04:21:48;;;;;;;7.97;3.40;;;10.00;99.90;;;;;;5112308;28;20746;-51
2022/12/20 04:24:17;;;;;;;6.27;2.87;;;9.90;99.90;;;;;;5115566;28;20264;-52
2022/12/20 04:26:43;;;;;;;5.73;3.20;;;9.90;99.90;;;;;;5114486;28;20589;-55
2022/12/20 04:29:10;;;;;;;3.40;3.03;;;9.90;99.90;;;;;;5115208;28;20668;-52
2022/12/20 04:31:37;;;;;;;5.00;3.47;;;9.90;99.90;;;;;;5115341;28;20617;-54
2022/12/20 04:34:03;;;;;;;5.00;2.90;;;9.80;99.90;;;;;;5115359;28;20650;-50
2022/12/20 04:36:30;;;;;;;5.40;3.10;;;9.80;99.90;;;;;;5115280;28;20209;-52
2022/12/20 04:38:57;;;;;;;4.93;2.73;;;9.70;99.90;;;;;;5115237;28;20230;-55
2022/12/20 04:41:25;;;;;;;4.40;3.20;;;9.70;99.90;;;;;;5114216;28;20200;-57
2022/12/20 04:43:54;;;;;;;4.03;2.90;;;9.60;99.90;;;;;;5114935;28;20821;-54
2022/12/20 04:46:22;;;;;;;3.43;3.13;;;9.70;99.90;;;;;;5115015;28;20215;-54
2022/12/20 04:48:49;;;;;;;4.10;2.93;;;9.70;99.90;;;;;;5115106;28;20252;-51
2022/12/20 04:51:16;;;;;;;9.30;3.40;;;9.70;99.90;;;;;;5114638;28;20213;-52
2022/12/20 04:53:48;;;;;;;5.57;3.30;;;9.60;99.90;;;;;;5114667;28;20209;-52
2022/12/20 04:56:17;;;;;;;5.27;3.40;;;9.60;99.90;;;;;;5114629;28;20571;-53
2022/12/20 04:58:45;;;;;;;5.67;3.17;;;9.60;99.90;;;;;;5114583;28;20218;-53
2022/12/20 05:01:12;;;;;;;6.83;3.23;;;9.60;99.90;;;;;;5114636;28;20209;-53
2022/12/20 05:03:39;;;;;;;5.20;3.20;;;9.60;99.90;;;;;;5114557;28;20206;-48
2022/12/20 05:06:07;;;;;;;3.63;2.77;;;9.60;99.90;;;;;;5114265;28;20207;-50
2022/12/20 05:08:34;;;;;;;4.20;3.47;;;9.60;99.90;;;;;;5114726;28;20224;-49
2022/12/20 05:11:01;;;;;;;4.57;3.67;;;9.50;99.90;;;;;;5115022;28;20215;-51
2022/12/20 05:13:27;;;;;;;5.90;3.70;;;9.50;99.90;;;;;;5114763;28;20208;-50
2022/12/20 05:15:56;;;;;;;6.60;3.90;;;9.50;99.90;;;;;;5114101;28;20209;-46
2022/12/20 05:18:24;;;;;;;7.73;3.40;;;9.50;99.90;;;;;;5114769;28;20226;-49
2022/12/20 05:26:16;;;;;;;5.93;3.70;;;9.60;99.90;;;;;;5114421;28;20576;-46
2022/12/20 05:26:23;;;;;;;3.77;3.30;;;9.50;99.90;;;;;;5113900;28;20687;-46
2022/12/20 05:28:50;;;;;;;4.93;3.17;;;9.50;99.90;;;;;;5114080;28;20214;-47
2022/12/20 05:31:18;;;;;;;6.90;3.90;;;9.50;99.90;;;;;;5114392;28;20205;-51
2022/12/20 05:33:45;;;;;;;4.83;3.67;;;9.50;99.90;;;;;;5114228;28;20700;-52
2022/12/20 05:36:12;;;;;;;6.53;3.90;;;9.50;99.90;;;;;;5113843;28;20676;-51
2022/12/20 05:38:39;;;;;;;5.47;3.63;;;9.50;99.90;;;;;;5113590;28;20276;-54
2022/12/20 05:41:06;;;;;;;4.00;3.40;;;9.50;99.90;;;;;;5114085;28;20268;-49
2022/12/20 05:43:33;;;;;;;5.03;3.60;;;9.50;99.90;;;;;;5114166;28;20209;-51
2022/12/20 05:46:00;;;;;;;6.63;3.97;;;9.50;99.90;;;;;;5113859;28;20300;-54
2022/12/20 05:48:28;;;;;;;3.40;2.90;;;9.50;99.90;;;;;;5114055;28;20631;-51
2022/12/20 05:50:54;;;;;;;5.23;3.30;;;9.50;99.90;;;;;;5114186;28;20576;-49
2022/12/20 05:53:21;;;;;;;6.43;3.60;;;9.50;99.90;;;;;;5114338;27;20790;-49
2022/12/20 05:55:50;;;;;;;4.40;3.47;;;9.40;99.90;;;;;;5114056;28;20255;-51
2022/12/20 05:58:16;;;;;;;6.13;3.70;;;9.50;99.90;;;;;;5113673;28;20230;-47
2022/12/20 06:00:44;;;;;;;5.77;3.53;;;9.50;99.90;;;;;;5113997;28;20204;-53
2022/12/20 06:03:13;;;;;;;5.97;3.53;;;9.50;99.90;;;;;;5113806;28;20668;-48
2022/12/20 06:05:42;;;;;;;6.23;3.83;;;9.60;99.90;;;;;;5113994;28;20206;-52
2022/12/20 06:08:09;;;;;;;6.30;3.60;;;9.60;99.90;;;;;;5113312;28;20239;-50
2022/12/20 06:10:36;;;;;;;5.03;3.13;;;9.60;99.90;;;;;;5113546;28;20288;-51
2022/12/20 06:13:04;;;;;;;6.87;3.80;;;9.70;99.90;;;;;;5113099;28;20207;-49
2022/12/20 06:15:30;;;;;;;5.10;3.40;;;9.70;99.90;;;;;;5113395;27;20214;-50
2022/12/20 06:17:57;;;;;;;6.20;3.20;;;9.70;99.90;;;;;;5113171;27;20277;-52
2022/12/20 06:20:24;;;;;;;8.97;3.17;;;9.70;99.90;;;;;;5113318;27;20314;-54
2022/12/20 06:22:52;;;;;;;5.13;3.07;;;9.70;99.90;;;;;;5113350;28;20248;-52
2022/12/20 06:25:19;;;;;;;7.57;3.17;;;9.70;99.90;;;;;;5112576;28;20235;-54
2022/12/20 06:27:46;;;;;;;5.37;2.97;;;9.70;99.90;;;;;;5112595;28;20705;-50
2022/12/20 06:30:13;;;;;;;4.70;2.87;;;9.80;99.90;;;;;;5113116;28;20206;-54
2022/12/20 06:32:40;;;;;;;6.40;3.30;;;9.80;99.90;;;;;;5113137;28;20604;-49
2022/12/20 06:35:08;;;;;;;5.60;2.90;;;9.80;99.90;;;;;;5113090;28;20210;-50
2022/12/20 06:37:35;;;;;;;3.90;3.23;;;9.80;99.90;;;;;;5112726;28;20301;-52
2022/12/20 06:40:03;;;;;;;3.87;2.93;;;9.80;99.90;;;;;;5112554;28;20227;-47
2022/12/20 06:42:30;;;;;;;4.03;2.80;;;9.80;99.90;;;;;;5112908;28;20212;-50
2022/12/20 06:44:56;;;;;;;3.83;2.87;;;9.90;99.90;;;;;;5112335;28;20248;-55
2022/12/20 06:47:23;;;;;;;3.60;2.83;;;10.00;99.90;;;;;;5112428;28;20243;-53
2022/12/20 06:49:50;;;;;;;4.27;2.70;;;10.00;99.90;;;;;;5112913;28;20199;-51
2022/12/20 06:52:16;;;;;;;4.23;2.57;;;10.00;99.90;;;;;;5112440;28;20668;-52
2022/12/20 06:54:43;;;;;;;6.97;3.20;;;10.10;99.90;;;;;;5112377;28;20777;-55
2022/12/20 06:57:11;;;;;;;5.90;2.57;;;10.20;99.90;;;;;;5112289;28;20215;-49
2022/12/20 06:59:38;;;;;;;5.43;2.63;;;10.20;99.90;;;;;;5112517;28;20230;-55
2022/12/20 07:02:05;;;;;;;3.80;2.93;;;10.20;99.90;;;;;;5112671;28;20209;-50
2022/12/20 07:04:31;;;;;;;4.53;2.60;;;10.20;99.90;;;;;;5112557;28;20624;-53
2022/12/20 07:06:58;;;;;;;5.70;2.90;;;10.20;99.90;;;;;;5112087;28;20647;-50
2022/12/20 07:09:25;;;;;;;6.20;2.60;;;10.20;99.90;;;;;;5112500;28;20259;-53
2022/12/20 07:11:51;;;;;;;3.83;2.53;;;10.30;99.90;;;;;;5112598;28;20238;-53
2022/12/20 07:14:19;;;;;;;4.20;2.53;;;10.30;99.90;;;;;;5111699;28;20248;-47
2022/12/20 07:16:46;;;;;;;3.93;2.90;;;10.30;99.90;;;;;;5112109;28;20212;-55
2022/12/20 07:19:14;;;;;;;4.20;2.70;;;10.30;99.90;;;;;;5111905;28;20688;-51
2022/12/20 07:21:41;;;;;;;5.80;3.03;;;10.30;99.90;;;;;;5112390;28;20234;-47
2022/12/20 07:24:08;;;;;;;4.70;2.60;;;10.30;99.90;;;;;;5112390;28;20207;-53
2022/12/20 07:26:42;;;;;;;5.20;2.73;;;10.30;99.90;;;;;;5111890;28;20199;-52
2022/12/20 07:29:08;;;;;;;3.37;2.40;;;10.30;99.90;;;;;;5112003;28;20214;-52
2022/12/20 07:31:36;;;;;;;3.10;2.27;;;10.30;99.90;;;;;;5112041;28;20670;-50
2022/12/20 07:34:06;;;;;;;4.03;2.33;;;10.30;99.90;;;;;;5112168;28;20256;-51
2022/12/20 07:36:33;;;;;;;3.27;2.50;;;10.30;99.90;;;;;;5112025;28;20203;-48
2022/12/20 07:39:00;;;;;;;7.13;2.47;;;10.30;99.90;;;;;;5111865;28;20219;-50
2022/12/20 07:41:26;;;;;;;4.50;2.70;;;10.30;99.90;;;;;;5112169;28;20213;-53
2022/12/20 07:43:53;;;;;;;5.03;2.37;;;10.30;99.90;;;;;;5112408;28;20215;-51
2022/12/20 07:46:20;;;;;;;3.53;2.37;;;10.30;99.90;;;;;;5112068;28;20200;-51
2022/12/20 07:48:48;;;;;;;5.40;2.70;;;10.30;99.90;;;;;;5112114;28;20350;-53
2022/12/20 07:51:18;;;;;;;3.70;2.40;;;10.30;99.90;;;;;;5111921;28;20204;-51
2022/12/20 07:53:48;;;;;;;2.20;1.90;;;10.30;99.90;;;;;;5112221;28;20260;-54
2022/12/20 07:56:16;;;;;;;3.27;1.77;;;10.40;99.90;;;;;;5111612;28;20252;-54
2022/12/20 07:58:43;;;;;;;6.97;2.60;;;10.50;99.90;;;;;;5115866;28;20639;-51
2022/12/20 08:01:11;;;;;;;3.47;2.40;;;10.40;99.90;;;;;;5115629;28;20227;-56
2022/12/20 08:03:43;;;;;;;3.30;2.33;;;10.40;99.90;;;;;;5115858;28;20314;-60
2022/12/20 08:06:13;;;;;;;6.20;2.57;;;10.40;99.90;;;;;;5115706;28;20203;-53
2022/12/20 08:08:44;;;;;;;3.07;2.40;;;10.50;99.90;;;;;;5115808;28;20284;-52
2022/12/20 08:11:11;;;;;;;5.80;2.33;;;10.50;99.90;;;;;;5115723;28;20206;-52
2022/12/20 08:13:38;;;;;;;4.53;2.17;;;10.50;99.90;;;;;;5115196;27;20203;-53
2022/12/20 08:16:06;;;;;;;3.87;2.10;;;10.70;99.90;;;;;;5115449;28;20713;-56
2022/12/20 08:18:33;;;;;;;2.50;1.90;;;10.70;99.90;;;;;;5115269;27;20219;-49
2022/12/20 08:20:59;;;;;;;2.30;1.87;;;10.80;99.90;;;;;;5115565;28;20227;-51
2022/12/20 08:23:27;;;;;;;3.63;2.00;;;10.80;99.90;;;;;;5115419;28;20570;-54
2022/12/20 08:25:54;;;;;;;4.07;2.10;;;10.80;99.90;;;;;;5114904;28;20202;-50
2022/12/20 08:28:21;;;;;;;2.93;1.80;;;10.90;99.90;;;;;;5115280;28;20271;-52
2022/12/20 08:30:47;;;;;;;3.13;2.30;;;10.80;99.90;;;;;;5115840;28;20200;-49
2022/12/20 08:33:14;;;;;;;2.80;1.90;;;10.90;99.90;;;;;;5115341;28;20264;-49
2022/12/20 08:35:41;;;;;;;3.70;2.10;;;10.90;99.90;;;;;;5115301;28;20336;-51
2022/12/20 08:38:07;;;;;;;2.27;1.70;;;11.00;97.00;;;;;;5114860;28;20228;-51
2022/12/20 08:40:36;;;;;;;4.83;2.13;;;11.00;95.40;;;;;;5114708;28;20219;-51
2022/12/20 08:43:02;;;;;;;3.87;2.10;;;10.90;98.50;;;;;;5114984;28;20628;-51
2022/12/20 08:45:29;;;;;;;2.67;2.23;;;11.00;95.10;;;;;;5114674;28;20204;-52
2022/12/20 08:47:56;;;;;;;2.53;2.10;;;10.90;99.90;;;;;;5115028;28;20231;-50
2022/12/20 08:50:22;;;;;;;2.63;1.87;;;11.00;97.40;;;;;;5114792;28;20199;-47
2022/12/20 08:52:49;;;;;;;2.83;2.30;;;10.90;99.70;;;;;;5114827;28;20204;-49
2022/12/20 08:55:16;;;;;;;3.70;1.77;;;10.90;99.90;;;;;;5114074;28;20259;-49
2022/12/20 08:57:43;;;;;;;3.40;2.20;;;10.90;99.90;;;;;;5114796;28;20216;-47
2022/12/20 09:00:11;;;;;;;2.63;2.00;;;10.90;99.90;;;;;;5114832;27;20269;-49
2022/12/20 09:02:40;;;;;;;4.43;2.10;;;11.00;92.20;;;;;;5114500;27;20204;-48
2022/12/20 09:05:07;;;;;;;3.97;2.07;;;11.10;91.70;;;;;;5114681;28;20214;-50
2022/12/20 09:07:33;;;;;;;2.57;2.10;;;11.10;91.50;;;;;;5114096;28;20235;-51
2022/12/20 09:10:01;;;;;;;3.57;2.27;;;11.10;94.20;;;;;;5114197;28;20195;-52
2022/12/20 09:12:27;;;;;;;4.10;2.20;;;11.10;90.60;;;;;;5114691;28;20298;-49
2022/12/20 09:14:56;;;;;;;3.67;2.07;;;11.10;91.20;;;;;;5114126;28;20268;-49
2022/12/20 09:17:23;;;;;;;3.40;2.00;;;11.10;88.20;;;;;;5114189;28;20761;-53
2022/12/20 09:19:49;;;;;;;3.57;2.10;;;11.10;90.10;;;;;;5113999;27;20700;-56
2022/12/20 09:22:16;;;;;;;2.57;1.70;;;11.10;87.50;;;;;;5114408;28;20211;-48
2022/12/20 09:24:43;;;;;;;6.07;1.90;;;11.20;84.10;;;;;;5114286;28;20207;-54
2022/12/20 09:27:09;;;;;;;5.27;2.13;;;11.20;80.90;;;;;;5113763;28;20215;-48
2022/12/20 09:29:36;;;;;;;2.57;2.20;;;11.20;77.90;;;;;;5114107;27;20313;-47
2022/12/20 09:32:04;;;;;;;2.47;2.00;;;11.10;82.50;;;;;;5114123;28;20237;-50
2022/12/20 09:34:31;;;;;;;2.70;1.83;;;11.20;84.40;;;;;;5114516;27;20203;-49
2022/12/20 09:36:58;;;;;;;4.00;2.47;;;11.10;80.80;;;;;;5113119;28;20196;-50
2022/12/20 09:39:24;;;;;;;4.03;2.07;;;11.20;86.50;;;;;;5113928;28;20191;-50
2022/12/20 09:41:51;;;;;;;2.93;2.03;;;11.10;85.90;;;;;;5114054;28;20287;-52
2022/12/20 09:44:23;;;;;;;2.83;1.80;;;11.10;90.50;;;;;;5114019;28;20208;-50
2022/12/20 09:46:54;;;;;;;3.40;1.87;;;11.10;90.10;;;;;;5113531;28;20666;-50
2022/12/20 09:49:27;;;;;;;3.90;2.23;;;11.10;91.80;;;;;;5113737;28;20264;-51
2022/12/20 09:52:25;;;;;;;2.60;1.93;;;11.10;94.60;;;;;;5113660;28;20215;-52
2022/12/20 09:55:01;;;;;;;3.10;2.00;;;11.10;94.30;;;;;;5113689;28;20215;-51
2022/12/20 09:57:40;;;;;;;4.13;2.30;;;11.10;94.50;;;;;;5113251;28;20223;-52
2022/12/20 10:00:14;;;;;;;3.73;2.00;;;11.10;95.40;;;;;;5113726;28;20231;-49
2022/12/20 10:02:40;;;;;;;6.47;2.00;;;11.10;97.60;;;;;;5113804;28;20242;-52
2022/12/20 10:05:15;;;;;;;2.03;1.83;;;11.20;98.30;;;;;;5113628;28;20207;-51
2022/12/20 10:07:50;;;;;;;3.97;2.00;;;11.20;99.90;;;;;;5113260;28;20226;-50
2022/12/20 10:10:44;;;;;;;3.77;2.20;;;11.20;99.90;;;;;;5102509;28;20622;-64
2022/12/20 10:13:22;;;;;;;5.60;2.13;;;11.20;99.90;;;;;;5112134;28;20669;-63
2022/12/20 10:15:54;;;;;;;2.03;1.73;;;11.20;99.90;;;;;;5112146;28;20235;-63
2022/12/20 10:18:32;;;;;;;2.50;1.90;;;11.30;94.90;;;;;;5111527;28;20240;-56
2022/12/20 10:21:08;;;;;;;4.23;1.90;;;11.30;93.50;;;;;;5111024;28;20708;-61
2022/12/20 10:23:43;;;;;;;2.70;2.07;;;11.40;94.40;;;;;;5112652;28;20203;-61
2022/12/20 10:26:11;;;;;;;3.33;2.13;;;11.30;99.90;;;;;;5112082;28;20204;-61
2022/12/20 10:28:39;;;;;;;3.87;2.20;;;11.20;99.90;;;;;;5112482;28;20239;-60
2022/12/20 10:31:08;;;;;;;3.43;2.03;;;11.20;99.90;;;;;;5112333;28;20204;-61
2022/12/20 10:33:35;;;;;;;3.77;2.20;;;11.20;99.90;;;;;;5112708;27;20596;-61
2022/12/20 10:36:23;;;;;;;3.40;2.40;;;11.20;99.90;;;;;;5111968;28;20203;-61
2022/12/20 10:38:52;;;;;;;3.10;1.87;;;11.20;99.90;;;;;;5111669;28;20706;-61
2022/12/20 10:41:21;;;;;;;2.77;2.00;;;11.30;99.90;;;;;;5111993;28;20231;-61
2022/12/20 10:43:52;;;;;;;5.97;2.20;;;11.20;99.90;;;;;;5112566;28;20218;-60
2022/12/20 10:46:19;;;;;;;3.40;2.30;;;11.20;99.90;;;;;;5112220;28;20332;-61
2022/12/20 10:48:47;;;;;;;3.43;2.00;;;11.20;99.90;;;;;;5112264;28;20231;-60
2022/12/20 10:51:16;;;;;;;4.10;2.13;;;11.40;99.90;;;;;;5112140;28;20639;-61
2022/12/20 10:53:57;;;;;;;4.03;2.20;;;11.40;99.90;;;;;;5112528;28;20199;-59
2022/12/20 10:56:26;;;;;;;2.73;1.83;;;11.50;98.60;;;;;;5111954;28;20397;-62
2022/12/20 10:58:58;;;;;;;4.67;2.27;;;11.50;99.90;;;;;;5112326;28;20318;-61
2022/12/20 11:01:30;;;;;;;3.50;2.07;;;11.50;97.20;;;;;;5111797;28;20235;-58
2022/12/20 11:03:59;;;;;;;2.70;2.17;;;11.50;98.80;;;;;;5112178;28;20259;-56
2022/12/20 11:06:29;;;;;;;3.20;2.00;;;11.50;99.90;;;;;;5110278;28;20214;-60
2022/12/20 11:09:34;;;;;;;4.47;2.20;;;11.60;99.90;;;;;;5103727;28;20231;-61
2022/12/20 11:12:05;;;;;;;2.47;2.10;;;11.70;96.10;;;;;;5091800;28;20260;-59
2022/12/20 11:14:34;;;;;;;3.57;2.20;;;11.70;93.00;;;;;;5112057;28;20226;-59
2022/12/20 11:17:07;;;;;;;2.67;1.70;;;11.70;91.40;;;;;;5111479;28;20196;-56
2022/12/20 11:19:54;;;;;;;4.80;2.10;;;11.80;84.70;;;;;;5112493;28;20295;-59
2022/12/20 11:22:31;;;;;;;4.33;2.10;;;11.70;82.80;;;;;;5111883;28;20207;-64
2022/12/20 11:25:10;;;;;;;3.37;1.70;;;11.70;82.40;;;;;;5112162;28;20236;-60
2022/12/20 11:27:47;;;;;;;4.00;1.70;;;11.70;93.20;;;;;;5111778;28;20219;-59
2022/12/20 11:30:18;;;;;;;2.83;2.00;;;11.70;90.40;;;;;;5111650;28;20197;-59
2022/12/20 11:33:11;;;;;;;4.00;1.77;;;11.80;85.90;;;;;;5115833;28;20199;-59
2022/12/20 11:35:49;;;;;;;3.10;1.97;;;11.80;69.10;;;;;;5115989;28;20670;-59
2022/12/20 11:38:27;;;;;;;2.40;1.40;;;11.80;59.60;;;;;;5115793;28;20258;-58
2022/12/20 11:41:05;;;;;;;2.37;1.80;;;11.90;55.20;;;;;;5115639;28;20231;-59
2022/12/20 11:43:48;;;;;;;2.50;1.90;;;11.90;52.60;;;;;;5114985;28;20256;-59
2022/12/20 11:46:27;;;;;;;3.67;1.80;;;11.80;51.60;;;;;;5107417;28;20203;-58
2022/12/20 11:49:14;;;;;;;3.50;2.00;;;11.80;62.50;;;;;;5115911;28;20246;-63
2022/12/20 11:52:00;;;;;;;3.43;2.10;;;11.70;65.20;;;;;;5115583;28;20608;-62
2022/12/20 11:54:32;;;;;;;2.00;1.80;;;11.80;69.20;;;;;;5115871;28;20214;-62
2022/12/20 11:57:04;;;;;;;2.67;1.87;;;11.70;77.20;;;;;;5115553;28;20200;-62
2022/12/20 11:59:41;;;;;;;2.83;1.90;;;11.70;72.00;;;;;;5116140;28;20253;-62
2022/12/20 12:02:12;;;;;;;4.70;2.03;;;11.80;72.80;;;;;;5115087;28;20568;-62
2022/12/20 12:04:43;;;;;;;1.93;1.70;;;11.70;88.90;;;;;;5115832;28;20192;-59
2022/12/20 12:07:15;;;;;;;5.43;2.00;;;11.70;80.40;;;;;;5115356;28;20227;-59
2022/12/20 12:09:58;;;;;;;4.10;2.23;;;11.70;81.60;;;;;;5115558;27;20199;-59
2022/12/20 12:12:28;;;;;;;3.40;2.20;;;11.80;64.60;;;;;;5115274;27;20211;-59
2022/12/20 12:15:02;;;;;;;4.27;1.40;;;11.70;54.60;;;;;;5115425;28;20219;-59
2022/12/20 12:17:36;;;;;;;3.83;2.10;;;11.80;53.70;;;;;;5114805;28;20219;-59
2022/12/20 12:20:21;;;;;;;2.60;1.87;;;11.80;53.20;;;;;;5115285;28;20207;-59
2022/12/20 12:22:50;;;;;;;2.13;1.70;;;11.70;53.10;;;;;;5115091;27;20211;-59
2022/12/20 12:25:18;;;;;;;2.97;1.70;;;11.70;56.20;;;;;;5115202;28;20204;-59
2022/12/20 12:27:45;;;;;;;2.97;2.10;;;11.80;54.70;;;;;;5114672;28;20311;-59
2022/12/20 12:30:15;;;;;;;3.63;1.80;;;11.70;49.90;;;;;;5114964;28;20206;-59
2022/12/20 12:32:47;;;;;;;3.87;2.13;;;11.80;47.20;;;;;;5114734;28;20212;-58
2022/12/20 12:35:47;;;;;;;3.17;1.93;;;11.70;44.10;;;;;;5114576;28;20437;-60
2022/12/20 12:38:40;;;;;;;4.43;2.07;;;11.70;46.20;;;;;;5107864;28;20227;-59
2022/12/20 12:41:31;;;;;;;3.53;1.93;;;11.80;42.40;;;;;;5114408;28;20701;-57
2022/12/20 12:44:02;;;;;;;4.10;1.87;;;11.80;40.80;;;;;;5109020;28;20211;-57
2022/12/20 12:46:35;;;;;;;2.03;1.60;;;11.80;35.40;;;;;;5114199;28;20207;-60
2022/12/20 12:49:05;;;;;;;3.20;1.87;;;11.80;37.00;;;;;;5115197;28;20379;-58
2022/12/20 12:51:35;;;;;;;3.90;2.00;;;11.90;38.50;;;;;;5114345;28;20209;-61
2022/12/20 12:54:13;;;;;;;1.60;1.20;;;11.90;42.30;;;;;;5114883;28;20189;-62
2022/12/20 12:56:42;;;;;;;4.13;1.90;;;11.90;50.10;;;;;;5114423;28;20189;-61
2022/12/20 12:59:29;;;;;;;4.97;1.80;;;11.90;79.00;;;;;;5114320;28;20219;-65
2022/12/20 13:02:24;;;;;;;6.60;1.80;;;11.90;84.20;;;;;;5114430;28;20231;-61
2022/12/20 13:04:56;;;;;;;3.70;1.60;;;11.90;92.30;;;;;;5114545;28;20206;-57
2022/12/20 13:07:42;;;;;;;3.50;2.10;;;11.80;93.80;;;;;;5113735;28;20223;-56